sensor_id;sensor_type;location;lat;lon;timestamp;temperature;humidity
4406;DHT22;2216;53.806;11.598;2023-08-24T00:01:25;20.20;59.40
4406;DHT22;2216;53.806;11.598;2023-08-24T00:03:51;20.10;59.40
4406;DHT22;2216;53.806;11.598;2023-08-24T00:06:17;20.10;59.40
4406;DHT22;2216;53.806;11.598;2023-08-24T00:08:43;20.10;59.40
4406;DHT22;2216;53.806;11.598;2023-08-24T00:11:09;20.10;59.40
4406;DHT22;2216;53.806;11.598;2023-08-24T00:13:37;20.10;59.40
4406;DHT22;2216;53.806;11.598;2023-08-24T00:16:02;20.10;59.50
4406;DHT22;2216;53.806;11.598;2023-08-24T00:18:29;19.80;59.40
4406;DHT22;2216;53.806;11.598;2023-08-24T00:20:55;20.10;59.50
4406;DHT22;2216;53.806;11.598;2023-08-24T00:23:21;20.00;59.50
4406;DHT22;2216;53.806;11.598;2023-08-24T00:25:47;20.00;59.50
4406;DHT22;2216;53.806;11.598;2023-08-24T00:28:12;20.00;59.50
4406;DHT22;2216;53.806;11.598;2023-08-24T00:30:38;20.00;59.50
4406;DHT22;2216;53.806;11.598;2023-08-24T00:33:04;20.00;60.10
4406;DHT22;2216;53.806;11.598;2023-08-24T00:35:29;20.00;59.60
4406;DHT22;2216;53.806;11.598;2023-08-24T00:37:56;19.90;59.50
4406;DHT22;2216;53.806;11.598;2023-08-24T00:40:21;19.90;59.50
4406;DHT22;2216;53.806;11.598;2023-08-24T00:42:47;19.90;59.50
4406;DHT22;2216;53.806;11.598;2023-08-24T00:45:13;20.00;59.60
4406;DHT22;2216;53.806;11.598;2023-08-24T00:47:42;19.90;59.60
4406;DHT22;2216;53.806;11.598;2023-08-24T00:50:09;19.90;59.60
4406;DHT22;2216;53.806;11.598;2023-08-24T00:52:38;19.90;59.60
4406;DHT22;2216;53.806;11.598;2023-08-24T00:55:06;19.90;59.60
4406;DHT22;2216;53.806;11.598;2023-08-24T00:57:32;19.90;59.60
4406;DHT22;2216;53.806;11.598;2023-08-24T00:59:59;19.90;59.60
4406;DHT22;2216;53.806;11.598;2023-08-24T01:02:28;19.90;59.70
4406;DHT22;2216;53.806;11.598;2023-08-24T01:04:54;19.80;59.60
4406;DHT22;2216;53.806;11.598;2023-08-24T01:07:20;19.80;59.60
4406;DHT22;2216;53.806;11.598;2023-08-24T01:09:47;19.80;59.60
4406;DHT22;2216;53.806;11.598;2023-08-24T01:17:50;19.70;59.60
4406;DHT22;2216;53.806;11.598;2023-08-24T01:20:17;19.70;59.60
4406;DHT22;2216;53.806;11.598;2023-08-24T01:25:39;19.70;59.60
4406;DHT22;2216;53.806;11.598;2023-08-24T01:28:11;19.70;59.60
4406;DHT22;2216;53.806;11.598;2023-08-24T01:30:38;19.60;59.60
4406;DHT22;2216;53.806;11.598;2023-08-24T01:33:04;19.60;59.70
4406;DHT22;2216;53.806;11.598;2023-08-24T01:35:31;19.60;59.70
4406;DHT22;2216;53.806;11.598;2023-08-24T01:37:58;19.60;59.70
4406;DHT22;2216;53.806;11.598;2023-08-24T01:40:36;19.60;59.70
4406;DHT22;2216;53.806;11.598;2023-08-24T01:43:07;19.50;59.70
4406;DHT22;2216;53.806;11.598;2023-08-24T01:45:33;19.50;59.70
4406;DHT22;2216;53.806;11.598;2023-08-24T01:48:02;19.50;59.70
4406;DHT22;2216;53.806;11.598;2023-08-24T01:50:30;19.50;59.80
4406;DHT22;2216;53.806;11.598;2023-08-24T01:52:56;19.40;59.70
4406;DHT22;2216;53.806;11.598;2023-08-24T01:55:23;19.40;60.40
4406;DHT22;2216;53.806;11.598;2023-08-24T01:57:48;19.40;60.40
4406;DHT22;2216;53.806;11.598;2023-08-24T02:00:14;19.40;59.80
4406;DHT22;2216;53.806;11.598;2023-08-24T02:02:42;19.30;59.80
4406;DHT22;2216;53.806;11.598;2023-08-24T02:05:09;19.30;59.80
4406;DHT22;2216;53.806;11.598;2023-08-24T02:07:35;19.30;59.80
4406;DHT22;2216;53.806;11.598;2023-08-24T02:10:01;19.30;59.90
4406;DHT22;2216;53.806;11.598;2023-08-24T02:12:27;19.20;59.90
4406;DHT22;2216;53.806;11.598;2023-08-24T02:14:52;19.20;59.90
4406;DHT22;2216;53.806;11.598;2023-08-24T02:17:18;19.20;59.90
4406;DHT22;2216;53.806;11.598;2023-08-24T02:19:44;19.20;59.90
4406;DHT22;2216;53.806;11.598;2023-08-24T02:22:09;19.20;59.90
4406;DHT22;2216;53.806;11.598;2023-08-24T02:24:35;19.10;60.00
4406;DHT22;2216;53.806;11.598;2023-08-24T02:27:01;19.30;60.00
4406;DHT22;2216;53.806;11.598;2023-08-24T02:29:26;19.10;59.90
4406;DHT22;2216;53.806;11.598;2023-08-24T02:31:53;19.20;60.00
4406;DHT22;2216;53.806;11.598;2023-08-24T02:34:19;19.10;60.00
4406;DHT22;2216;53.806;11.598;2023-08-24T02:36:44;19.10;60.00
4406;DHT22;2216;53.806;11.598;2023-08-24T02:39:10;19.10;60.00
4406;DHT22;2216;53.806;11.598;2023-08-24T02:41:36;19.10;60.00
4406;DHT22;2216;53.806;11.598;2023-08-24T02:44:02;19.10;60.10
4406;DHT22;2216;53.806;11.598;2023-08-24T02:46:28;19.10;60.00
4406;DHT22;2216;53.806;11.598;2023-08-24T02:48:54;19.00;60.00
4406;DHT22;2216;53.806;11.598;2023-08-24T02:51:22;19.10;60.00
4406;DHT22;2216;53.806;11.598;2023-08-24T02:53:48;19.00;60.70
4406;DHT22;2216;53.806;11.598;2023-08-24T02:56:14;19.00;60.00
4406;DHT22;2216;53.806;11.598;2023-08-24T02:58:39;18.90;59.90
4406;DHT22;2216;53.806;11.598;2023-08-24T03:01:06;18.90;59.90
4406;DHT22;2216;53.806;11.598;2023-08-24T03:03:33;18.90;59.90
4406;DHT22;2216;53.806;11.598;2023-08-24T03:06:01;18.90;60.00
4406;DHT22;2216;53.806;11.598;2023-08-24T03:08:29;19.00;60.00
4406;DHT22;2216;53.806;11.598;2023-08-24T03:10:55;18.80;60.00
4406;DHT22;2216;53.806;11.598;2023-08-24T03:13:21;18.80;60.00
4406;DHT22;2216;53.806;11.598;2023-08-24T03:15:48;18.70;60.00
4406;DHT22;2216;53.806;11.598;2023-08-24T03:18:14;18.70;60.00
4406;DHT22;2216;53.806;11.598;2023-08-24T03:20:41;18.70;60.00
4406;DHT22;2216;53.806;11.598;2023-08-24T03:23:07;18.70;60.10
4406;DHT22;2216;53.806;11.598;2023-08-24T03:25:37;18.70;60.10
4406;DHT22;2216;53.806;11.598;2023-08-24T03:28:04;18.60;60.00
4406;DHT22;2216;53.806;11.598;2023-08-24T03:30:31;18.60;60.00
4406;DHT22;2216;53.806;11.598;2023-08-24T03:32:56;18.60;60.10
4406;DHT22;2216;53.806;11.598;2023-08-24T03:35:24;18.50;60.00
4406;DHT22;2216;53.806;11.598;2023-08-24T03:37:51;18.50;60.00
4406;DHT22;2216;53.806;11.598;2023-08-24T03:40:16;18.40;60.00
4406;DHT22;2216;53.806;11.598;2023-08-24T03:42:42;18.40;60.10
4406;DHT22;2216;53.806;11.598;2023-08-24T03:45:08;18.40;60.10
4406;DHT22;2216;53.806;11.598;2023-08-24T03:47:34;18.30;60.00
4406;DHT22;2216;53.806;11.598;2023-08-24T03:49:59;18.30;60.00
4406;DHT22;2216;53.806;11.598;2023-08-24T03:52:25;18.20;60.00
4406;DHT22;2216;53.806;11.598;2023-08-24T03:54:51;18.20;60.10
4406;DHT22;2216;53.806;11.598;2023-08-24T03:57:16;18.10;60.00
4406;DHT22;2216;53.806;11.598;2023-08-24T03:59:42;18.10;60.10
4406;DHT22;2216;53.806;11.598;2023-08-24T04:02:08;18.00;60.10
4406;DHT22;2216;53.806;11.598;2023-08-24T04:04:33;18.00;60.10
4406;DHT22;2216;53.806;11.598;2023-08-24T04:06:59;17.90;60.10
4406;DHT22;2216;53.806;11.598;2023-08-24T04:09:25;17.90;60.10
4406;DHT22;2216;53.806;11.598;2023-08-24T04:11:51;17.90;60.20
4406;DHT22;2216;53.806;11.598;2023-08-24T04:14:17;17.90;60.30
4406;DHT22;2216;53.806;11.598;2023-08-24T04:16:42;17.80;60.20
4406;DHT22;2216;53.806;11.598;2023-08-24T04:19:08;17.80;60.30
4406;DHT22;2216;53.806;11.598;2023-08-24T04:21:34;17.80;60.30
4406;DHT22;2216;53.806;11.598;2023-08-24T04:24:00;17.70;60.20
4406;DHT22;2216;53.806;11.598;2023-08-24T04:26:25;17.70;60.30
4406;DHT22;2216;53.806;11.598;2023-08-24T04:28:51;17.70;60.40
4406;DHT22;2216;53.806;11.598;2023-08-24T04:31:17;17.60;60.30
4406;DHT22;2216;53.806;11.598;2023-08-24T04:33:43;17.70;60.50
4406;DHT22;2216;53.806;11.598;2023-08-24T04:36:08;17.60;60.50
4406;DHT22;2216;53.806;11.598;2023-08-24T04:38:34;17.60;60.60
4406;DHT22;2216;53.806;11.598;2023-08-24T04:41:00;17.70;60.70
4406;DHT22;2216;53.806;11.598;2023-08-24T04:43:26;17.60;60.60
4406;DHT22;2216;53.806;11.598;2023-08-24T04:45:53;17.60;60.70
4406;DHT22;2216;53.806;11.598;2023-08-24T04:48:20;17.60;60.70
4406;DHT22;2216;53.806;11.598;2023-08-24T04:50:46;17.60;60.80
4406;DHT22;2216;53.806;11.598;2023-08-24T04:53:17;17.60;60.80
4406;DHT22;2216;53.806;11.598;2023-08-24T04:55:43;17.60;60.80
4406;DHT22;2216;53.806;11.598;2023-08-24T04:58:10;17.60;60.90
4406;DHT22;2216;53.806;11.598;2023-08-24T05:00:36;17.60;61.10
4406;DHT22;2216;53.806;11.598;2023-08-24T05:03:05;17.60;61.30
4406;DHT22;2216;53.806;11.598;2023-08-24T05:05:31;17.60;61.30
4406;DHT22;2216;53.806;11.598;2023-08-24T05:07:58;17.70;61.50
4406;DHT22;2216;53.806;11.598;2023-08-24T05:10:25;17.70;61.60
4406;DHT22;2216;53.806;11.598;2023-08-24T05:12:51;17.80;61.90
4406;DHT22;2216;53.806;11.598;2023-08-24T05:15:17;17.90;62.00
4406;DHT22;2216;53.806;11.598;2023-08-24T05:17:42;18.00;62.10
4406;DHT22;2216;53.806;11.598;2023-08-24T05:20:08;18.10;62.30
4406;DHT22;2216;53.806;11.598;2023-08-24T05:22:36;18.20;62.50
4406;DHT22;2216;53.806;11.598;2023-08-24T05:25:02;18.30;62.60
4406;DHT22;2216;53.806;11.598;2023-08-24T05:27:28;18.40;62.70
4406;DHT22;2216;53.806;11.598;2023-08-24T05:29:54;18.60;62.90
4406;DHT22;2216;53.806;11.598;2023-08-24T05:32:19;18.80;63.00
4406;DHT22;2216;53.806;11.598;2023-08-24T05:34:45;18.90;63.00
4406;DHT22;2216;53.806;11.598;2023-08-24T05:37:11;19.00;63.00
4406;DHT22;2216;53.806;11.598;2023-08-24T05:39:37;19.20;63.00
4406;DHT22;2216;53.806;11.598;2023-08-24T05:42:04;19.30;62.90
4406;DHT22;2216;53.806;11.598;2023-08-24T05:44:30;19.50;62.90
4406;DHT22;2216;53.806;11.598;2023-08-24T05:46:56;19.60;62.70
4406;DHT22;2216;53.806;11.598;2023-08-24T05:49:21;19.80;62.80
4406;DHT22;2216;53.806;11.598;2023-08-24T05:51:50;19.90;62.70
4406;DHT22;2216;53.806;11.598;2023-08-24T05:54:16;20.10;62.80
4406;DHT22;2216;53.806;11.598;2023-08-24T05:56:47;20.20;62.80
4406;DHT22;2216;53.806;11.598;2023-08-24T05:59:13;20.40;62.80
4406;DHT22;2216;53.806;11.598;2023-08-24T06:01:40;20.60;62.70
4406;DHT22;2216;53.806;11.598;2023-08-24T06:04:07;20.70;62.60
4406;DHT22;2216;53.806;11.598;2023-08-24T06:06:34;20.90;62.50
4406;DHT22;2216;53.806;11.598;2023-08-24T06:09:00;21.00;62.40
4406;DHT22;2216;53.806;11.598;2023-08-24T06:11:25;21.20;62.40
4406;DHT22;2216;53.806;11.598;2023-08-24T06:13:51;21.30;62.10
4406;DHT22;2216;53.806;11.598;2023-08-24T06:16:19;21.50;62.20
4406;DHT22;2216;53.806;11.598;2023-08-24T06:18:45;21.60;62.00
4406;DHT22;2216;53.806;11.598;2023-08-24T06:21:11;21.70;62.10
4406;DHT22;2216;53.806;11.598;2023-08-24T06:23:37;21.90;62.10
4406;DHT22;2216;53.806;11.598;2023-08-24T06:26:03;22.00;62.00
4406;DHT22;2216;53.806;11.598;2023-08-24T06:28:30;22.10;61.70
4406;DHT22;2216;53.806;11.598;2023-08-24T06:30:56;22.20;61.60
4406;DHT22;2216;53.806;11.598;2023-08-24T06:33:27;22.40;61.70
4406;DHT22;2216;53.806;11.598;2023-08-24T06:35:56;22.40;61.50
4406;DHT22;2216;53.806;11.598;2023-08-24T06:38:25;22.50;61.20
4406;DHT22;2216;53.806;11.598;2023-08-24T06:40:51;22.60;61.20
4406;DHT22;2216;53.806;11.598;2023-08-24T06:43:17;22.60;61.20
4406;DHT22;2216;53.806;11.598;2023-08-24T06:45:44;22.70;61.30
4406;DHT22;2216;53.806;11.598;2023-08-24T06:48:10;22.80;61.40
4406;DHT22;2216;53.806;11.598;2023-08-24T06:50:36;22.90;61.40
4406;DHT22;2216;53.806;11.598;2023-08-24T06:53:05;23.00;61.30
4406;DHT22;2216;53.806;11.598;2023-08-24T06:55:31;23.10;61.10
4406;DHT22;2216;53.806;11.598;2023-08-24T06:57:56;23.10;60.90
4406;DHT22;2216;53.806;11.598;2023-08-24T07:00:23;23.20;60.90
4406;DHT22;2216;53.806;11.598;2023-08-24T07:02:50;23.30;61.10
4406;DHT22;2216;53.806;11.598;2023-08-24T07:05:16;23.40;61.20
4406;DHT22;2216;53.806;11.598;2023-08-24T07:07:46;23.50;62.00
4406;DHT22;2216;53.806;11.598;2023-08-24T07:10:12;23.70;61.30
4406;DHT22;2216;53.806;11.598;2023-08-24T07:12:38;23.80;61.20
4406;DHT22;2216;53.806;11.598;2023-08-24T07:15:08;23.90;61.10
4406;DHT22;2216;53.806;11.598;2023-08-24T07:17:34;24.00;61.10
4406;DHT22;2216;53.806;11.598;2023-08-24T07:19:59;24.10;60.90
4406;DHT22;2216;53.806;11.598;2023-08-24T07:22:25;24.20;60.80
4406;DHT22;2216;53.806;11.598;2023-08-24T07:24:52;24.20;60.60
4406;DHT22;2216;53.806;11.598;2023-08-24T07:27:18;24.30;60.60
4406;DHT22;2216;53.806;11.598;2023-08-24T07:29:44;24.40;60.80
4406;DHT22;2216;53.806;11.598;2023-08-24T07:32:10;24.50;60.70
4406;DHT22;2216;53.806;11.598;2023-08-24T07:34:36;24.60;60.80
4406;DHT22;2216;53.806;11.598;2023-08-24T07:37:02;24.70;60.90
4406;DHT22;2216;53.806;11.598;2023-08-24T07:39:27;24.80;60.80
4406;DHT22;2216;53.806;11.598;2023-08-24T07:41:53;24.90;60.80
4406;DHT22;2216;53.806;11.598;2023-08-24T07:44:19;25.10;60.70
4406;DHT22;2216;53.806;11.598;2023-08-24T07:46:45;25.20;60.60
4406;DHT22;2216;53.806;11.598;2023-08-24T07:49:11;25.20;60.30
4406;DHT22;2216;53.806;11.598;2023-08-24T07:51:37;25.30;60.20
4406;DHT22;2216;53.806;11.598;2023-08-24T07:54:03;25.30;60.20
4406;DHT22;2216;53.806;11.598;2023-08-24T07:56:30;25.40;60.30
4406;DHT22;2216;53.806;11.598;2023-08-24T07:58:55;25.40;60.20
4406;DHT22;2216;53.806;11.598;2023-08-24T08:01:21;25.50;60.20
4406;DHT22;2216;53.806;11.598;2023-08-24T08:03:47;25.60;60.40
4406;DHT22;2216;53.806;11.598;2023-08-24T08:06:12;25.60;60.30
4406;DHT22;2216;53.806;11.598;2023-08-24T08:08:39;25.70;60.40
4406;DHT22;2216;53.806;11.598;2023-08-24T08:11:04;25.80;60.10
4406;DHT22;2216;53.806;11.598;2023-08-24T08:13:30;25.90;60.40
4406;DHT22;2216;53.806;11.598;2023-08-24T08:16:06;25.80;59.60
4406;DHT22;2216;53.806;11.598;2023-08-24T08:18:33;25.80;59.60
4406;DHT22;2216;53.806;11.598;2023-08-24T08:21:00;25.70;59.60
4406;DHT22;2216;53.806;11.598;2023-08-24T08:23:26;25.80;59.90
4406;DHT22;2216;53.806;11.598;2023-08-24T08:25:51;25.80;60.00
4406;DHT22;2216;53.806;11.598;2023-08-24T08:28:17;25.90;59.90
4406;DHT22;2216;53.806;11.598;2023-08-24T08:30:44;25.90;59.80
4406;DHT22;2216;53.806;11.598;2023-08-24T08:33:10;25.90;59.70
4406;DHT22;2216;53.806;11.598;2023-08-24T08:35:37;26.00;59.70
4406;DHT22;2216;53.806;11.598;2023-08-24T08:38:05;25.90;59.30
4406;DHT22;2216;53.806;11.598;2023-08-24T08:40:31;25.80;59.40
4406;DHT22;2216;53.806;11.598;2023-08-24T08:42:58;25.90;59.60
4406;DHT22;2216;53.806;11.598;2023-08-24T08:45:25;25.90;59.80
4406;DHT22;2216;53.806;11.598;2023-08-24T08:48:01;26.00;60.00
4406;DHT22;2216;53.806;11.598;2023-08-24T08:50:29;26.20;59.90
4406;DHT22;2216;53.806;11.598;2023-08-24T08:52:56;26.30;59.80
4406;DHT22;2216;53.806;11.598;2023-08-24T08:55:22;26.30;59.60
4406;DHT22;2216;53.806;11.598;2023-08-24T08:57:48;26.40;59.80
4406;DHT22;2216;53.806;11.598;2023-08-24T09:00:18;26.50;59.90
4406;DHT22;2216;53.806;11.598;2023-08-24T09:02:45;26.60;59.90
4406;DHT22;2216;53.806;11.598;2023-08-24T09:05:14;26.60;59.80
4406;DHT22;2216;53.806;11.598;2023-08-24T09:07:40;26.70;59.70
4406;DHT22;2216;53.806;11.598;2023-08-24T09:10:07;26.80;59.80
4406;DHT22;2216;53.806;11.598;2023-08-24T09:12:33;26.90;59.70
4406;DHT22;2216;53.806;11.598;2023-08-24T09:15:02;27.00;59.60
4406;DHT22;2216;53.806;11.598;2023-08-24T09:17:29;27.10;59.60
4406;DHT22;2216;53.806;11.598;2023-08-24T09:19:58;27.20;59.60
4406;DHT22;2216;53.806;11.598;2023-08-24T09:22:24;27.30;59.60
4406;DHT22;2216;53.806;11.598;2023-08-24T09:24:50;27.40;59.70
4406;DHT22;2216;53.806;11.598;2023-08-24T09:27:18;27.50;59.60
4406;DHT22;2216;53.806;11.598;2023-08-24T09:29:52;27.70;59.70
4406;DHT22;2216;53.806;11.598;2023-08-24T09:32:28;27.70;59.30
4406;DHT22;2216;53.806;11.598;2023-08-24T09:34:55;27.80;59.20
4406;DHT22;2216;53.806;11.598;2023-08-24T09:37:21;27.90;59.20
4406;DHT22;2216;53.806;11.598;2023-08-24T09:39:47;28.00;59.30
4406;DHT22;2216;53.806;11.598;2023-08-24T09:42:13;28.20;59.40
4406;DHT22;2216;53.806;11.598;2023-08-24T09:44:45;28.30;59.40
4406;DHT22;2216;53.806;11.598;2023-08-24T09:47:11;28.40;59.30
4406;DHT22;2216;53.806;11.598;2023-08-24T09:49:37;28.60;59.40
4406;DHT22;2216;53.806;11.598;2023-08-24T09:52:06;28.70;59.30
4406;DHT22;2216;53.806;11.598;2023-08-24T09:54:36;28.80;59.20
4406;DHT22;2216;53.806;11.598;2023-08-24T09:57:05;28.90;58.80
4406;DHT22;2216;53.806;11.598;2023-08-24T09:59:34;29.00;59.10
4406;DHT22;2216;53.806;11.598;2023-08-24T10:02:01;29.10;58.90
4406;DHT22;2216;53.806;11.598;2023-08-24T10:04:33;29.20;59.10
4406;DHT22;2216;53.806;11.598;2023-08-24T10:07:09;29.30;58.90
4406;DHT22;2216;53.806;11.598;2023-08-24T10:10:02;29.40;58.90
4406;DHT22;2216;53.806;11.598;2023-08-24T10:12:30;29.50;58.60
4406;DHT22;2216;53.806;11.598;2023-08-24T10:15:02;29.60;58.90
4406;DHT22;2216;53.806;11.598;2023-08-24T10:17:29;29.70;58.80
4406;DHT22;2216;53.806;11.598;2023-08-24T10:19:58;29.60;58.70
4406;DHT22;2216;53.806;11.598;2023-08-24T10:22:31;29.90;58.60
4406;DHT22;2216;53.806;11.598;2023-08-24T10:24:57;29.90;58.70
4406;DHT22;2216;53.806;11.598;2023-08-24T10:27:23;30.00;58.60
4406;DHT22;2216;53.806;11.598;2023-08-24T10:29:51;30.10;58.50
4406;DHT22;2216;53.806;11.598;2023-08-24T10:32:18;30.10;58.50
4406;DHT22;2216;53.806;11.598;2023-08-24T10:34:45;30.20;58.50
4406;DHT22;2216;53.806;11.598;2023-08-24T10:37:11;30.30;58.50
4406;DHT22;2216;53.806;11.598;2023-08-24T10:39:43;30.30;58.40
4406;DHT22;2216;53.806;11.598;2023-08-24T10:42:11;30.30;58.30
4406;DHT22;2216;53.806;11.598;2023-08-24T10:44:39;30.30;58.40
4406;DHT22;2216;53.806;11.598;2023-08-24T10:47:14;30.40;58.40
4406;DHT22;2216;53.806;11.598;2023-08-24T10:49:42;30.40;58.40
4406;DHT22;2216;53.806;11.598;2023-08-24T10:54:52;30.60;58.20
4406;DHT22;2216;53.806;11.598;2023-08-24T10:57:54;30.60;58.20
4406;DHT22;2216;53.806;11.598;2023-08-24T11:00:13;30.60;58.10
4406;DHT22;2216;53.806;11.598;2023-08-24T11:02:47;30.60;58.10
4406;DHT22;2216;53.806;11.598;2023-08-24T11:05:20;30.60;58.10
4406;DHT22;2216;53.806;11.598;2023-08-24T11:07:49;30.70;58.10
4406;DHT22;2216;53.806;11.598;2023-08-24T11:10:20;30.70;58.20
4406;DHT22;2216;53.806;11.598;2023-08-24T11:13:06;30.70;58.20
4406;DHT22;2216;53.806;11.598;2023-08-24T11:15:35;30.80;58.00
4406;DHT22;2216;53.806;11.598;2023-08-24T11:18:20;30.80;58.00
4406;DHT22;2216;53.806;11.598;2023-08-24T11:21:04;30.90;58.20
4406;DHT22;2216;53.806;11.598;2023-08-24T11:23:31;30.90;57.40
4406;DHT22;2216;53.806;11.598;2023-08-24T11:26:00;30.90;58.00
4406;DHT22;2216;53.806;11.598;2023-08-24T11:28:28;30.90;57.90
4406;DHT22;2216;53.806;11.598;2023-08-24T11:30:55;31.00;58.10
4406;DHT22;2216;53.806;11.598;2023-08-24T11:33:32;31.00;58.10
4406;DHT22;2216;53.806;11.598;2023-08-24T11:36:00;31.10;58.10
4406;DHT22;2216;53.806;11.598;2023-08-24T11:38:42;31.10;57.80
4406;DHT22;2216;53.806;11.598;2023-08-24T11:41:18;31.20;57.50
4406;DHT22;2216;53.806;11.598;2023-08-24T11:43:45;31.20;57.70
4406;DHT22;2216;53.806;11.598;2023-08-24T11:46:12;31.20;57.60
4406;DHT22;2216;53.806;11.598;2023-08-24T11:48:39;31.20;57.70
4406;DHT22;2216;53.806;11.598;2023-08-24T11:51:09;31.30;57.70
4406;DHT22;2216;53.806;11.598;2023-08-24T11:53:47;31.30;57.80
4406;DHT22;2216;53.806;11.598;2023-08-24T11:56:13;31.20;57.70
4406;DHT22;2216;53.806;11.598;2023-08-24T11:58:40;31.30;57.70
4406;DHT22;2216;53.806;11.598;2023-08-24T12:01:08;31.20;57.40
4406;DHT22;2216;53.806;11.598;2023-08-24T12:03:36;31.30;57.70
4406;DHT22;2216;53.806;11.598;2023-08-24T12:06:02;31.30;57.70
4406;DHT22;2216;53.806;11.598;2023-08-24T12:08:30;31.40;57.80
4406;DHT22;2216;53.806;11.598;2023-08-24T12:10:56;31.50;57.80
4406;DHT22;2216;53.806;11.598;2023-08-24T12:13:22;31.50;57.70
4406;DHT22;2216;53.806;11.598;2023-08-24T12:15:47;31.50;57.60
4406;DHT22;2216;53.806;11.598;2023-08-24T12:18:15;31.50;57.70
4406;DHT22;2216;53.806;11.598;2023-08-24T12:20:41;31.60;57.60
4406;DHT22;2216;53.806;11.598;2023-08-24T12:23:09;31.60;57.60
4406;DHT22;2216;53.806;11.598;2023-08-24T12:25:37;31.50;57.50
4406;DHT22;2216;53.806;11.598;2023-08-24T12:28:13;31.60;57.40
4406;DHT22;2216;53.806;11.598;2023-08-24T12:30:59;31.60;57.40
4406;DHT22;2216;53.806;11.598;2023-08-24T12:33:30;31.50;57.40
4406;DHT22;2216;53.806;11.598;2023-08-24T12:35:57;31.50;57.30
4406;DHT22;2216;53.806;11.598;2023-08-24T12:38:25;31.50;57.20
4406;DHT22;2216;53.806;11.598;2023-08-24T12:40:52;31.40;57.20
4406;DHT22;2216;53.806;11.598;2023-08-24T12:43:18;31.30;57.10
4406;DHT22;2216;53.806;11.598;2023-08-24T12:45:44;31.30;57.10
4406;DHT22;2216;53.806;11.598;2023-08-24T12:48:10;31.30;57.30
4406;DHT22;2216;53.806;11.598;2023-08-24T12:50:38;31.30;57.40
4406;DHT22;2216;53.806;11.598;2023-08-24T12:53:04;31.30;57.50
4406;DHT22;2216;53.806;11.598;2023-08-24T12:55:32;31.30;57.50
4406;DHT22;2216;53.806;11.598;2023-08-24T12:57:59;31.30;57.40
4406;DHT22;2216;53.806;11.598;2023-08-24T13:00:24;31.30;57.30
4406;DHT22;2216;53.806;11.598;2023-08-24T13:02:50;31.40;57.50
4406;DHT22;2216;53.806;11.598;2023-08-24T13:05:16;31.30;57.50
4406;DHT22;2216;53.806;11.598;2023-08-24T13:07:42;31.40;57.30
4406;DHT22;2216;53.806;11.598;2023-08-24T13:10:08;31.40;57.30
4406;DHT22;2216;53.806;11.598;2023-08-24T13:12:35;31.30;57.20
4406;DHT22;2216;53.806;11.598;2023-08-24T13:15:01;31.30;57.00
4406;DHT22;2216;53.806;11.598;2023-08-24T13:17:29;31.20;56.90
4406;DHT22;2216;53.806;11.598;2023-08-24T13:19:55;31.10;56.90
4406;DHT22;2216;53.806;11.598;2023-08-24T13:22:21;31.00;56.90
4406;DHT22;2216;53.806;11.598;2023-08-24T13:24:47;30.90;56.80
4406;DHT22;2216;53.806;11.598;2023-08-24T13:27:12;30.80;56.80
4406;DHT22;2216;53.806;11.598;2023-08-24T13:29:39;30.70;56.70
4406;DHT22;2216;53.806;11.598;2023-08-24T13:32:05;30.50;56.70
4406;DHT22;2216;53.806;11.598;2023-08-24T13:34:31;30.40;56.80
4406;DHT22;2216;53.806;11.598;2023-08-24T13:36:57;30.40;56.70
4406;DHT22;2216;53.806;11.598;2023-08-24T13:39:25;30.30;57.00
4406;DHT22;2216;53.806;11.598;2023-08-24T13:41:53;30.30;57.10
4406;DHT22;2216;53.806;11.598;2023-08-24T13:44:19;30.30;57.80
4406;DHT22;2216;53.806;11.598;2023-08-24T13:46:46;30.30;57.30
4406;DHT22;2216;53.806;11.598;2023-08-24T13:49:12;30.20;57.30
4406;DHT22;2216;53.806;11.598;2023-08-24T13:51:38;30.30;57.30
4406;DHT22;2216;53.806;11.598;2023-08-24T13:54:15;30.30;57.30
4406;DHT22;2216;53.806;11.598;2023-08-24T13:56:44;30.30;57.30
4406;DHT22;2216;53.806;11.598;2023-08-24T13:59:11;30.30;57.10
4406;DHT22;2216;53.806;11.598;2023-08-24T14:01:37;30.20;56.80
4406;DHT22;2216;53.806;11.598;2023-08-24T14:04:03;30.10;56.70
4406;DHT22;2216;53.806;11.598;2023-08-24T14:06:29;29.90;56.50
4406;DHT22;2216;53.806;11.598;2023-08-24T14:08:57;29.80;56.30
4406;DHT22;2216;53.806;11.598;2023-08-24T14:11:23;29.60;56.50
4406;DHT22;2216;53.806;11.598;2023-08-24T14:13:49;29.50;56.50
4406;DHT22;2216;53.806;11.598;2023-08-24T14:16:15;29.40;56.60
4406;DHT22;2216;53.806;11.598;2023-08-24T14:18:40;29.30;56.70
4406;DHT22;2216;53.806;11.598;2023-08-24T14:21:06;29.20;56.60
4406;DHT22;2216;53.806;11.598;2023-08-24T14:23:32;29.20;56.90
4406;DHT22;2216;53.806;11.598;2023-08-24T14:25:57;29.20;57.00
4406;DHT22;2216;53.806;11.598;2023-08-24T14:28:23;29.10;57.00
4406;DHT22;2216;53.806;11.598;2023-08-24T14:30:50;29.10;57.00
4406;DHT22;2216;53.806;11.598;2023-08-24T14:33:16;29.10;56.80
4406;DHT22;2216;53.806;11.598;2023-08-24T14:35:52;29.10;56.90
4406;DHT22;2216;53.806;11.598;2023-08-24T14:38:18;29.20;57.00
4406;DHT22;2216;53.806;11.598;2023-08-24T14:40:44;29.20;57.00
4406;DHT22;2216;53.806;11.598;2023-08-24T14:43:10;29.20;57.00
4406;DHT22;2216;53.806;11.598;2023-08-24T14:45:35;29.20;56.90
4406;DHT22;2216;53.806;11.598;2023-08-24T14:48:01;29.20;57.00
4406;DHT22;2216;53.806;11.598;2023-08-24T14:50:27;29.20;56.90
4406;DHT22;2216;53.806;11.598;2023-08-24T14:52:52;29.20;56.80
4406;DHT22;2216;53.806;11.598;2023-08-24T14:55:18;29.20;56.80
4406;DHT22;2216;53.806;11.598;2023-08-24T14:57:44;29.10;56.60
4406;DHT22;2216;53.806;11.598;2023-08-24T15:00:10;29.00;56.50
4406;DHT22;2216;53.806;11.598;2023-08-24T15:02:36;29.00;56.50
4406;DHT22;2216;53.806;11.598;2023-08-24T15:05:03;28.80;56.40
4406;DHT22;2216;53.806;11.598;2023-08-24T15:07:30;28.80;56.50
4406;DHT22;2216;53.806;11.598;2023-08-24T15:09:56;28.70;56.40
4406;DHT22;2216;53.806;11.598;2023-08-24T15:12:22;28.60;56.30
4406;DHT22;2216;53.806;11.598;2023-08-24T15:14:58;28.50;56.30
4406;DHT22;2216;53.806;11.598;2023-08-24T15:17:26;28.30;56.00
4406;DHT22;2216;53.806;11.598;2023-08-24T15:19:54;28.30;56.30
4406;DHT22;2216;53.806;11.598;2023-08-24T15:22:24;28.20;56.50
4406;DHT22;2216;53.806;11.598;2023-08-24T15:24:54;28.00;56.50
4406;DHT22;2216;53.806;11.598;2023-08-24T15:27:20;27.90;56.50
4406;DHT22;2216;53.806;11.598;2023-08-24T15:29:46;28.10;56.70
4406;DHT22;2216;53.806;11.598;2023-08-24T15:32:12;28.10;56.70
4406;DHT22;2216;53.806;11.598;2023-08-24T15:34:39;28.10;56.70
4406;DHT22;2216;53.806;11.598;2023-08-24T15:37:05;28.10;56.70
4406;DHT22;2216;53.806;11.598;2023-08-24T15:39:36;28.10;57.30
4406;DHT22;2216;53.806;11.598;2023-08-24T15:42:03;28.10;56.70
4406;DHT22;2216;53.806;11.598;2023-08-24T15:44:29;28.10;56.60
4406;DHT22;2216;53.806;11.598;2023-08-24T15:46:55;28.00;56.50
4406;DHT22;2216;53.806;11.598;2023-08-24T15:49:22;28.00;56.80
4406;DHT22;2216;53.806;11.598;2023-08-24T15:51:53;27.90;56.40
4406;DHT22;2216;53.806;11.598;2023-08-24T15:54:19;27.90;56.50
4406;DHT22;2216;53.806;11.598;2023-08-24T15:56:46;27.90;56.50